sensor_id;sensor_type;location;lat;lon;timestamp;P1;durP1;ratioP1;P2;durP2;ratioP2
75716;SDS011;64333;50.138;14.332;2023-07-16T00:01:16;5.45;;;3.30;;
75716;SDS011;64333;50.138;14.332;2023-07-16T00:03:41;5.43;;;3.03;;
75716;SDS011;64333;50.138;14.332;2023-07-16T00:06:07;5.50;;;2.93;;
75716;SDS011;64333;50.138;14.332;2023-07-16T00:08:32;6.63;;;2.90;;
75716;SDS011;64333;50.138;14.332;2023-07-16T00:10:57;5.27;;;3.37;;
75716;SDS011;64333;50.138;14.332;2023-07-16T00:13:22;10.87;;;3.30;;
75716;SDS011;64333;50.138;14.332;2023-07-16T00:15:47;6.20;;;3.13;;
75716;SDS011;64333;50.138;14.332;2023-07-16T00:18:13;4.93;;;3.25;;
75716;SDS011;64333;50.138;14.332;2023-07-16T00:20:38;8.13;;;3.17;;
75716;SDS011;64333;50.138;14.332;2023-07-16T00:23:03;3.20;;;2.83;;
75716;SDS011;64333;50.138;14.332;2023-07-16T00:25:28;8.17;;;2.83;;
75716;SDS011;64333;50.138;14.332;2023-07-16T00:27:54;5.77;;;3.07;;
75716;SDS011;64333;50.138;14.332;2023-07-16T00:30:19;7.17;;;2.90;;
75716;SDS011;64333;50.138;14.332;2023-07-16T00:32:44;5.43;;;3.27;;
75716;SDS011;64333;50.138;14.332;2023-07-16T00:35:09;6.03;;;3.33;;
75716;SDS011;64333;50.138;14.332;2023-07-16T00:37:35;6.43;;;3.17;;
75716;SDS011;64333;50.138;14.332;2023-07-16T00:40:00;6.27;;;3.13;;
75716;SDS011;64333;50.138;14.332;2023-07-16T00:42:25;5.93;;;3.00;;
75716;SDS011;64333;50.138;14.332;2023-07-16T00:44:50;6.37;;;3.40;;
75716;SDS011;64333;50.138;14.332;2023-07-16T00:47:16;9.45;;;3.30;;
75716;SDS011;64333;50.138;14.332;2023-07-16T00:49:41;5.37;;;2.80;;
75716;SDS011;64333;50.138;14.332;2023-07-16T00:52:07;7.20;;;2.90;;
75716;SDS011;64333;50.138;14.332;2023-07-16T00:54:33;7.28;;;2.90;;
75716;SDS011;64333;50.138;14.332;2023-07-16T00:56:58;5.63;;;2.97;;
75716;SDS011;64333;50.138;14.332;2023-07-16T00:59:23;6.63;;;3.20;;
75716;SDS011;64333;50.138;14.332;2023-07-16T01:01:49;4.40;;;2.93;;
75716;SDS011;64333;50.138;14.332;2023-07-16T01:04:14;5.07;;;3.10;;
75716;SDS011;64333;50.138;14.332;2023-07-16T01:06:41;4.60;;;2.60;;
75716;SDS011;64333;50.138;14.332;2023-07-16T01:09:18;7.30;;;2.95;;
75716;SDS011;64333;50.138;14.332;2023-07-16T01:11:44;4.18;;;2.70;;
75716;SDS011;64333;50.138;14.332;2023-07-16T01:14:09;3.25;;;2.80;;
75716;SDS011;64333;50.138;14.332;2023-07-16T01:16:35;4.35;;;2.47;;
75716;SDS011;64333;50.138;14.332;2023-07-16T01:19:00;3.67;;;2.70;;
75716;SDS011;64333;50.138;14.332;2023-07-16T01:21:28;4.55;;;2.85;;
75716;SDS011;64333;50.138;14.332;2023-07-16T01:23:59;6.25;;;3.50;;
75716;SDS011;64333;50.138;14.332;2023-07-16T01:26:39;4.20;;;2.90;;
75716;SDS011;64333;50.138;14.332;2023-07-16T01:31:36;5.80;;;3.03;;
75716;SDS011;64333;50.138;14.332;2023-07-16T01:34:02;6.55;;;3.03;;
75716;SDS011;64333;50.138;14.332;2023-07-16T01:36:28;7.78;;;2.83;;
75716;SDS011;64333;50.138;14.332;2023-07-16T01:38:54;3.83;;;2.95;;
75716;SDS011;64333;50.138;14.332;2023-07-16T01:41:19;6.05;;;3.47;;
75716;SDS011;64333;50.138;14.332;2023-07-16T01:43:44;6.63;;;2.93;;
75716;SDS011;64333;50.138;14.332;2023-07-16T01:46:10;5.10;;;2.80;;
75716;SDS011;64333;50.138;14.332;2023-07-16T01:48:35;7.30;;;3.70;;
75716;SDS011;64333;50.138;14.332;2023-07-16T01:51:02;4.68;;;2.70;;
75716;SDS011;64333;50.138;14.332;2023-07-16T01:53:27;5.65;;;3.28;;
75716;SDS011;64333;50.138;14.332;2023-07-16T01:55:52;4.13;;;2.92;;
75716;SDS011;64333;50.138;14.332;2023-07-16T01:58:18;5.00;;;3.65;;
75716;SDS011;64333;50.138;14.332;2023-07-16T02:00:43;3.13;;;2.70;;
75716;SDS011;64333;50.138;14.332;2023-07-16T02:03:08;4.00;;;2.85;;
75716;SDS011;64333;50.138;14.332;2023-07-16T02:05:33;3.40;;;2.80;;
75716;SDS011;64333;50.138;14.332;2023-07-16T02:07:59;6.63;;;2.90;;
75716;SDS011;64333;50.138;14.332;2023-07-16T02:10:24;4.47;;;2.67;;
75716;SDS011;64333;50.138;14.332;2023-07-16T02:12:49;5.63;;;2.97;;
75716;SDS011;64333;50.138;14.332;2023-07-16T02:15:14;4.87;;;3.13;;
75716;SDS011;64333;50.138;14.332;2023-07-16T02:17:40;5.90;;;3.03;;
75716;SDS011;64333;50.138;14.332;2023-07-16T02:20:06;4.77;;;2.90;;
75716;SDS011;64333;50.138;14.332;2023-07-16T02:22:31;6.68;;;2.90;;
75716;SDS011;64333;50.138;14.332;2023-07-16T02:24:56;5.53;;;3.50;;
75716;SDS011;64333;50.138;14.332;2023-07-16T02:27:22;5.53;;;2.77;;
75716;SDS011;64333;50.138;14.332;2023-07-16T02:29:47;7.30;;;3.10;;
75716;SDS011;64333;50.138;14.332;2023-07-16T02:32:12;3.47;;;3.17;;
75716;SDS011;64333;50.138;14.332;2023-07-16T02:34:37;5.47;;;2.93;;
75716;SDS011;64333;50.138;14.332;2023-07-16T02:37:03;8.60;;;3.40;;
75716;SDS011;64333;50.138;14.332;2023-07-16T02:39:28;3.47;;;2.85;;
75716;SDS011;64333;50.138;14.332;2023-07-16T02:41:53;7.50;;;2.90;;
75716;SDS011;64333;50.138;14.332;2023-07-16T02:44:18;7.87;;;3.00;;
75716;SDS011;64333;50.138;14.332;2023-07-16T02:46:44;8.57;;;3.03;;
75716;SDS011;64333;50.138;14.332;2023-07-16T02:49:09;8.43;;;3.55;;
75716;SDS011;64333;50.138;14.332;2023-07-16T02:51:34;5.20;;;3.00;;
75716;SDS011;64333;50.138;14.332;2023-07-16T02:54:00;4.53;;;2.88;;
75716;SDS011;64333;50.138;14.332;2023-07-16T02:56:25;8.20;;;2.63;;
75716;SDS011;64333;50.138;14.332;2023-07-16T02:58:50;10.03;;;3.27;;
75716;SDS011;64333;50.138;14.332;2023-07-16T03:01:15;5.70;;;2.37;;
75716;SDS011;64333;50.138;14.332;2023-07-16T03:03:41;6.03;;;2.65;;
75716;SDS011;64333;50.138;14.332;2023-07-16T03:06:06;7.38;;;2.88;;
75716;SDS011;64333;50.138;14.332;2023-07-16T03:08:31;4.20;;;2.75;;
75716;SDS011;64333;50.138;14.332;2023-07-16T03:10:57;6.05;;;3.10;;
75716;SDS011;64333;50.138;14.332;2023-07-16T03:13:22;6.97;;;2.50;;
75716;SDS011;64333;50.138;14.332;2023-07-16T03:15:48;6.97;;;2.77;;
75716;SDS011;64333;50.138;14.332;2023-07-16T03:18:13;6.37;;;2.63;;
75716;SDS011;64333;50.138;14.332;2023-07-16T03:20:38;5.03;;;2.50;;
75716;SDS011;64333;50.138;14.332;2023-07-16T03:23:03;4.43;;;2.80;;
75716;SDS011;64333;50.138;14.332;2023-07-16T03:25:29;3.53;;;2.47;;
75716;SDS011;64333;50.138;14.332;2023-07-16T03:27:54;4.40;;;2.10;;
75716;SDS011;64333;50.138;14.332;2023-07-16T03:30:19;5.90;;;2.13;;
75716;SDS011;64333;50.138;14.332;2023-07-16T03:32:44;3.83;;;2.30;;
75716;SDS011;64333;50.138;14.332;2023-07-16T03:35:10;5.43;;;2.47;;
75716;SDS011;64333;50.138;14.332;2023-07-16T03:37:35;6.03;;;1.90;;
75716;SDS011;64333;50.138;14.332;2023-07-16T03:40:13;6.50;;;2.70;;
75716;SDS011;64333;50.138;14.332;2023-07-16T03:42:39;4.28;;;2.20;;
75716;SDS011;64333;50.138;14.332;2023-07-16T03:45:04;4.80;;;2.00;;
75716;SDS011;64333;50.138;14.332;2023-07-16T03:47:30;2.72;;;1.90;;
75716;SDS011;64333;50.138;14.332;2023-07-16T03:49:55;4.07;;;2.10;;
75716;SDS011;64333;50.138;14.332;2023-07-16T03:52:20;3.57;;;2.27;;
75716;SDS011;64333;50.138;14.332;2023-07-16T03:54:45;5.87;;;2.37;;
75716;SDS011;64333;50.138;14.332;2023-07-16T03:57:10;4.33;;;1.73;;
75716;SDS011;64333;50.138;14.332;2023-07-16T03:59:36;3.40;;;2.17;;
75716;SDS011;64333;50.138;14.332;2023-07-16T04:02:01;3.53;;;2.07;;
75716;SDS011;64333;50.138;14.332;2023-07-16T04:04:26;1.63;;;1.53;;
75716;SDS011;64333;50.138;14.332;2023-07-16T04:06:51;1.83;;;1.60;;
75716;SDS011;64333;50.138;14.332;2023-07-16T04:09:17;2.53;;;1.80;;
75716;SDS011;64333;50.138;14.332;2023-07-16T04:11:42;2.10;;;1.63;;
75716;SDS011;64333;50.138;14.332;2023-07-16T04:14:07;2.60;;;1.60;;
75716;SDS011;64333;50.138;14.332;2023-07-16T04:16:32;3.40;;;1.60;;
75716;SDS011;64333;50.138;14.332;2023-07-16T04:18:57;1.70;;;1.60;;
75716;SDS011;64333;50.138;14.332;2023-07-16T04:21:23;2.30;;;1.37;;
75716;SDS011;64333;50.138;14.332;2023-07-16T04:23:48;3.67;;;1.73;;
75716;SDS011;64333;50.138;14.332;2023-07-16T04:26:13;3.03;;;1.50;;
75716;SDS011;64333;50.138;14.332;2023-07-16T04:28:38;3.22;;;1.90;;
75716;SDS011;64333;50.138;14.332;2023-07-16T04:31:04;2.88;;;1.60;;
75716;SDS011;64333;50.138;14.332;2023-07-16T04:33:29;2.85;;;1.55;;
75716;SDS011;64333;50.138;14.332;2023-07-16T04:35:54;2.77;;;1.60;;
75716;SDS011;64333;50.138;14.332;2023-07-16T04:38:20;2.47;;;1.70;;
75716;SDS011;64333;50.138;14.332;2023-07-16T04:40:45;3.13;;;1.97;;
75716;SDS011;64333;50.138;14.332;2023-07-16T04:43:10;4.23;;;2.00;;
75716;SDS011;64333;50.138;14.332;2023-07-16T04:45:35;2.50;;;1.97;;
75716;SDS011;64333;50.138;14.332;2023-07-16T04:48:01;4.23;;;2.00;;
75716;SDS011;64333;50.138;14.332;2023-07-16T04:50:26;3.77;;;1.97;;
75716;SDS011;64333;50.138;14.332;2023-07-16T04:52:51;2.70;;;2.23;;
75716;SDS011;64333;50.138;14.332;2023-07-16T04:55:16;3.00;;;2.30;;
75716;SDS011;64333;50.138;14.332;2023-07-16T04:57:41;2.13;;;1.88;;
75716;SDS011;64333;50.138;14.332;2023-07-16T05:00:07;3.40;;;2.30;;
75716;SDS011;64333;50.138;14.332;2023-07-16T05:02:33;2.80;;;2.10;;
75716;SDS011;64333;50.138;14.332;2023-07-16T05:04:58;2.73;;;2.30;;
75716;SDS011;64333;50.138;14.332;2023-07-16T05:07:23;2.43;;;2.23;;
75716;SDS011;64333;50.138;14.332;2023-07-16T05:09:48;2.50;;;2.03;;
75716;SDS011;64333;50.138;14.332;2023-07-16T05:12:14;3.60;;;2.23;;
75716;SDS011;64333;50.138;14.332;2023-07-16T05:14:43;3.97;;;2.30;;
75716;SDS011;64333;50.138;14.332;2023-07-16T05:17:08;4.15;;;1.95;;
75716;SDS011;64333;50.138;14.332;2023-07-16T05:19:33;3.57;;;2.30;;
75716;SDS011;64333;50.138;14.332;2023-07-16T05:21:58;2.50;;;1.90;;
75716;SDS011;64333;50.138;14.332;2023-07-16T05:24:24;2.30;;;1.97;;
75716;SDS011;64333;50.138;14.332;2023-07-16T05:26:49;3.00;;;1.90;;
75716;SDS011;64333;50.138;14.332;2023-07-16T05:29:15;4.03;;;2.22;;
75716;SDS011;64333;50.138;14.332;2023-07-16T05:31:42;2.60;;;2.20;;
75716;SDS011;64333;50.138;14.332;2023-07-16T05:34:07;3.55;;;2.10;;
75716;SDS011;64333;50.138;14.332;2023-07-16T05:36:32;2.53;;;1.70;;
75716;SDS011;64333;50.138;14.332;2023-07-16T05:38:57;3.23;;;2.10;;
75716;SDS011;64333;50.138;14.332;2023-07-16T05:41:23;6.15;;;2.20;;
75716;SDS011;64333;50.138;14.332;2023-07-16T05:43:48;2.60;;;2.40;;
75716;SDS011;64333;50.138;14.332;2023-07-16T05:46:14;2.63;;;2.40;;
75716;SDS011;64333;50.138;14.332;2023-07-16T05:48:45;2.38;;;1.98;;
75716;SDS011;64333;50.138;14.332;2023-07-16T05:51:10;3.22;;;2.10;;
75716;SDS011;64333;50.138;14.332;2023-07-16T05:53:35;2.60;;;1.93;;
75716;SDS011;64333;50.138;14.332;2023-07-16T05:56:01;3.73;;;2.33;;
75716;SDS011;64333;50.138;14.332;2023-07-16T05:58:26;4.32;;;2.30;;
75716;SDS011;64333;50.138;14.332;2023-07-16T06:00:51;3.10;;;2.20;;
75716;SDS011;64333;50.138;14.332;2023-07-16T06:03:16;3.37;;;2.30;;
75716;SDS011;64333;50.138;14.332;2023-07-16T06:05:43;3.80;;;2.80;;
75716;SDS011;64333;50.138;14.332;2023-07-16T06:08:09;4.07;;;2.57;;
75716;SDS011;64333;50.138;14.332;2023-07-16T06:10:34;2.78;;;2.08;;
75716;SDS011;64333;50.138;14.332;2023-07-16T06:12:59;3.17;;;2.40;;
75716;SDS011;64333;50.138;14.332;2023-07-16T06:15:25;4.20;;;2.57;;
75716;SDS011;64333;50.138;14.332;2023-07-16T06:17:50;4.13;;;2.80;;
75716;SDS011;64333;50.138;14.332;2023-07-16T06:20:15;3.27;;;2.97;;
75716;SDS011;64333;50.138;14.332;2023-07-16T06:22:40;4.37;;;2.73;;
75716;SDS011;64333;50.138;14.332;2023-07-16T06:25:06;2.93;;;2.33;;
75716;SDS011;64333;50.138;14.332;2023-07-16T06:27:31;3.90;;;2.63;;
75716;SDS011;64333;50.138;14.332;2023-07-16T06:29:56;3.17;;;2.53;;
75716;SDS011;64333;50.138;14.332;2023-07-16T06:32:21;2.63;;;2.43;;
75716;SDS011;64333;50.138;14.332;2023-07-16T06:34:47;3.50;;;2.60;;
75716;SDS011;64333;50.138;14.332;2023-07-16T06:37:12;2.67;;;2.23;;
75716;SDS011;64333;50.138;14.332;2023-07-16T06:39:37;3.47;;;2.60;;
75716;SDS011;64333;50.138;14.332;2023-07-16T06:42:02;4.30;;;2.47;;
75716;SDS011;64333;50.138;14.332;2023-07-16T06:44:28;4.15;;;2.80;;
75716;SDS011;64333;50.138;14.332;2023-07-16T06:46:53;4.53;;;2.50;;
75716;SDS011;64333;50.138;14.332;2023-07-16T06:49:19;3.75;;;2.53;;
75716;SDS011;64333;50.138;14.332;2023-07-16T06:51:44;3.00;;;2.50;;
75716;SDS011;64333;50.138;14.332;2023-07-16T06:54:09;4.03;;;2.53;;
75716;SDS011;64333;50.138;14.332;2023-07-16T06:56:34;3.57;;;2.90;;
75716;SDS011;64333;50.138;14.332;2023-07-16T06:59:00;3.53;;;2.60;;
75716;SDS011;64333;50.138;14.332;2023-07-16T07:01:25;4.37;;;3.03;;
75716;SDS011;64333;50.138;14.332;2023-07-16T07:03:52;4.03;;;2.75;;
75716;SDS011;64333;50.138;14.332;2023-07-16T07:06:18;3.70;;;2.55;;
75716;SDS011;64333;50.138;14.332;2023-07-16T07:08:43;2.97;;;2.70;;
75716;SDS011;64333;50.138;14.332;2023-07-16T07:11:08;2.90;;;2.30;;
75716;SDS011;64333;50.138;14.332;2023-07-16T07:13:33;4.10;;;2.67;;
75716;SDS011;64333;50.138;14.332;2023-07-16T07:15:59;3.43;;;2.73;;
75716;SDS011;64333;50.138;14.332;2023-07-16T07:18:24;5.03;;;2.83;;
75716;SDS011;64333;50.138;14.332;2023-07-16T07:20:49;3.00;;;2.40;;
75716;SDS011;64333;50.138;14.332;2023-07-16T07:23:15;3.25;;;2.50;;
75716;SDS011;64333;50.138;14.332;2023-07-16T07:25:40;2.78;;;2.22;;
75716;SDS011;64333;50.138;14.332;2023-07-16T07:28:06;2.97;;;2.40;;
75716;SDS011;64333;50.138;14.332;2023-07-16T07:30:31;2.45;;;2.22;;
75716;SDS011;64333;50.138;14.332;2023-07-16T07:32:56;3.60;;;2.73;;
75716;SDS011;64333;50.138;14.332;2023-07-16T07:35:21;2.93;;;2.63;;
75716;SDS011;64333;50.138;14.332;2023-07-16T07:37:47;2.57;;;2.37;;
75716;SDS011;64333;50.138;14.332;2023-07-16T07:40:12;3.33;;;2.70;;
75716;SDS011;64333;50.138;14.332;2023-07-16T07:42:37;4.20;;;2.28;;
75716;SDS011;64333;50.138;14.332;2023-07-16T07:45:03;3.10;;;2.10;;
75716;SDS011;64333;50.138;14.332;2023-07-16T07:47:28;3.63;;;2.40;;
75716;SDS011;64333;50.138;14.332;2023-07-16T07:49:53;2.70;;;2.40;;
75716;SDS011;64333;50.138;14.332;2023-07-16T07:52:18;2.85;;;2.20;;
75716;SDS011;64333;50.138;14.332;2023-07-16T07:54:44;3.80;;;2.57;;
75716;SDS011;64333;50.138;14.332;2023-07-16T07:57:09;3.17;;;2.40;;
75716;SDS011;64333;50.138;14.332;2023-07-16T07:59:34;3.50;;;2.40;;
75716;SDS011;64333;50.138;14.332;2023-07-16T08:02:00;2.20;;;1.90;;
75716;SDS011;64333;50.138;14.332;2023-07-16T08:04:26;2.45;;;2.25;;
75716;SDS011;64333;50.138;14.332;2023-07-16T08:06:52;2.40;;;2.00;;
75716;SDS011;64333;50.138;14.332;2023-07-16T08:09:18;2.92;;;2.20;;
75716;SDS011;64333;50.138;14.332;2023-07-16T08:11:43;2.07;;;1.87;;
75716;SDS011;64333;50.138;14.332;2023-07-16T08:14:08;3.37;;;2.10;;
75716;SDS011;64333;50.138;14.332;2023-07-16T08:16:33;3.13;;;2.03;;
75716;SDS011;64333;50.138;14.332;2023-07-16T08:18:59;2.43;;;1.63;;
75716;SDS011;64333;50.138;14.332;2023-07-16T08:21:24;2.07;;;1.73;;
75716;SDS011;64333;50.138;14.332;2023-07-16T08:23:49;1.87;;;1.60;;
75716;SDS011;64333;50.138;14.332;2023-07-16T08:26:14;1.85;;;1.63;;
75716;SDS011;64333;50.138;14.332;2023-07-16T08:28:40;1.90;;;1.75;;
75716;SDS011;64333;50.138;14.332;2023-07-16T08:31:05;2.63;;;1.90;;
75716;SDS011;64333;50.138;14.332;2023-07-16T08:33:30;2.10;;;1.77;;
75716;SDS011;64333;50.138;14.332;2023-07-16T08:35:55;2.33;;;1.77;;
75716;SDS011;64333;50.138;14.332;2023-07-16T08:38:21;2.17;;;1.80;;
75716;SDS011;64333;50.138;14.332;2023-07-16T08:40:47;2.10;;;1.63;;
75716;SDS011;64333;50.138;14.332;2023-07-16T08:43:12;2.08;;;1.70;;
75716;SDS011;64333;50.138;14.332;2023-07-16T08:45:39;2.08;;;1.77;;
75716;SDS011;64333;50.138;14.332;2023-07-16T08:48:10;2.00;;;1.70;;
75716;SDS011;64333;50.138;14.332;2023-07-16T08:50:35;2.35;;;1.80;;
75716;SDS011;64333;50.138;14.332;2023-07-16T08:53:04;3.40;;;2.10;;
75716;SDS011;64333;50.138;14.332;2023-07-16T08:55:29;1.98;;;1.45;;
75716;SDS011;64333;50.138;14.332;2023-07-16T08:57:55;2.65;;;1.90;;
75716;SDS011;64333;50.138;14.332;2023-07-16T09:00:20;1.98;;;1.80;;
75716;SDS011;64333;50.138;14.332;2023-07-16T09:02:47;1.67;;;1.52;;
75716;SDS011;64333;50.138;14.332;2023-07-16T09:05:12;1.80;;;1.70;;
75716;SDS011;64333;50.138;14.332;2023-07-16T09:07:39;2.15;;;1.95;;
75716;SDS011;64333;50.138;14.332;2023-07-16T09:10:04;1.90;;;1.77;;
75716;SDS011;64333;50.138;14.332;2023-07-16T09:12:30;2.75;;;1.88;;
75716;SDS011;64333;50.138;14.332;2023-07-16T09:14:55;2.57;;;2.00;;
75716;SDS011;64333;50.138;14.332;2023-07-16T09:17:24;2.30;;;2.10;;
75716;SDS011;64333;50.138;14.332;2023-07-16T09:19:50;2.28;;;1.75;;
75716;SDS011;64333;50.138;14.332;2023-07-16T09:22:19;2.40;;;1.88;;
75716;SDS011;64333;50.138;14.332;2023-07-16T09:24:45;2.67;;;1.98;;
75716;SDS011;64333;50.138;14.332;2023-07-16T09:27:11;2.08;;;1.88;;
75716;SDS011;64333;50.138;14.332;2023-07-16T09:29:37;2.28;;;1.85;;
75716;SDS011;64333;50.138;14.332;2023-07-16T09:32:03;1.85;;;1.75;;
75716;SDS011;64333;50.138;14.332;2023-07-16T09:34:28;2.20;;;1.90;;
75716;SDS011;64333;50.138;14.332;2023-07-16T09:36:54;3.22;;;1.65;;
75716;SDS011;64333;50.138;14.332;2023-07-16T09:39:19;2.08;;;1.77;;
75716;SDS011;64333;50.138;14.332;2023-07-16T09:41:46;1.70;;;1.60;;
75716;SDS011;64333;50.138;14.332;2023-07-16T09:44:13;2.13;;;1.90;;
75716;SDS011;64333;50.138;14.332;2023-07-16T09:46:38;2.65;;;2.00;;
75716;SDS011;64333;50.138;14.332;2023-07-16T09:49:04;2.47;;;1.70;;
75716;SDS011;64333;50.138;14.332;2023-07-16T09:51:29;1.65;;;1.55;;
75716;SDS011;64333;50.138;14.332;2023-07-16T09:53:55;2.30;;;1.65;;
75716;SDS011;64333;50.138;14.332;2023-07-16T09:56:21;1.90;;;1.40;;
75716;SDS011;64333;50.138;14.332;2023-07-16T09:58:46;1.75;;;1.65;;
75716;SDS011;64333;50.138;14.332;2023-07-16T10:01:11;2.85;;;1.58;;
75716;SDS011;64333;50.138;14.332;2023-07-16T10:03:47;1.85;;;1.35;;
75716;SDS011;64333;50.138;14.332;2023-07-16T10:06:12;1.55;;;1.42;;
75716;SDS011;64333;50.138;14.332;2023-07-16T10:08:38;2.10;;;1.67;;
75716;SDS011;64333;50.138;14.332;2023-07-16T10:11:03;2.43;;;1.37;;
75716;SDS011;64333;50.138;14.332;2023-07-16T10:13:28;2.55;;;1.60;;
75716;SDS011;64333;50.138;14.332;2023-07-16T10:15:57;1.50;;;1.20;;
75716;SDS011;64333;50.138;14.332;2023-07-16T10:18:32;1.50;;;1.40;;
75716;SDS011;64333;50.138;14.332;2023-07-16T10:23:35;1.92;;;1.73;;
75716;SDS011;64333;50.138;14.332;2023-07-16T10:26:01;2.17;;;1.95;;
75716;SDS011;64333;50.138;14.332;2023-07-16T10:28:31;2.83;;;1.42;;
75716;SDS011;64333;50.138;14.332;2023-07-16T10:30:56;4.80;;;1.95;;
75716;SDS011;64333;50.138;14.332;2023-07-16T10:33:21;2.13;;;1.77;;
75716;SDS011;64333;50.138;14.332;2023-07-16T10:35:47;1.87;;;1.77;;
75716;SDS011;64333;50.138;14.332;2023-07-16T10:38:12;2.03;;;1.80;;
75716;SDS011;64333;50.138;14.332;2023-07-16T10:40:40;1.67;;;1.57;;
75716;SDS011;64333;50.138;14.332;2023-07-16T10:43:07;3.35;;;2.10;;
75716;SDS011;64333;50.138;14.332;2023-07-16T10:45:33;1.77;;;1.67;;
75716;SDS011;64333;50.138;14.332;2023-07-16T10:47:58;2.65;;;1.67;;
75716;SDS011;64333;50.138;14.332;2023-07-16T10:50:23;1.70;;;1.60;;
75716;SDS011;64333;50.138;14.332;2023-07-16T10:52:52;2.58;;;1.50;;
75716;SDS011;64333;50.138;14.332;2023-07-16T10:57:43;1.73;;;1.50;;
75716;SDS011;64333;50.138;14.332;2023-07-16T11:00:09;2.13;;;1.40;;
75716;SDS011;64333;50.138;14.332;2023-07-16T11:02:38;2.35;;;1.83;;
75716;SDS011;64333;50.138;14.332;2023-07-16T11:07:30;1.95;;;1.65;;
75716;SDS011;64333;50.138;14.332;2023-07-16T11:09:55;2.88;;;1.77;;
75716;SDS011;64333;50.138;14.332;2023-07-16T11:12:21;1.85;;;1.58;;
75716;SDS011;64333;50.138;14.332;2023-07-16T11:14:49;3.58;;;1.80;;
75716;SDS011;64333;50.138;14.332;2023-07-16T11:17:15;2.65;;;1.70;;
75716;SDS011;64333;50.138;14.332;2023-07-16T11:19:41;2.75;;;1.80;;
75716;SDS011;64333;50.138;14.332;2023-07-16T11:22:07;2.28;;;1.90;;
75716;SDS011;64333;50.138;14.332;2023-07-16T11:24:51;3.28;;;1.80;;
75716;SDS011;64333;50.138;14.332;2023-07-16T11:27:20;3.25;;;1.77;;
75716;SDS011;64333;50.138;14.332;2023-07-16T11:29:48;3.38;;;2.10;;
75716;SDS011;64333;50.138;14.332;2023-07-16T11:32:25;2.95;;;2.08;;
75716;SDS011;64333;50.138;14.332;2023-07-16T11:34:51;2.33;;;1.90;;
75716;SDS011;64333;50.138;14.332;2023-07-16T11:37:17;3.22;;;1.73;;
75716;SDS011;64333;50.138;14.332;2023-07-16T11:39:42;2.60;;;2.00;;
75716;SDS011;64333;50.138;14.332;2023-07-16T11:42:07;2.50;;;2.00;;
75716;SDS011;64333;50.138;14.332;2023-07-16T11:44:36;2.43;;;1.70;;
75716;SDS011;64333;50.138;14.332;2023-07-16T11:47:02;3.03;;;1.80;;
75716;SDS011;64333;50.138;14.332;2023-07-16T11:49:27;4.03;;;1.70;;
75716;SDS011;64333;50.138;14.332;2023-07-16T11:51:52;2.53;;;1.60;;
75716;SDS011;64333;50.138;14.332;2023-07-16T11:54:17;4.43;;;1.67;;
75716;SDS011;64333;50.138;14.332;2023-07-16T11:56:43;2.30;;;1.80;;
75716;SDS011;64333;50.138;14.332;2023-07-16T11:59:08;2.77;;;1.60;;
75716;SDS011;64333;50.138;14.332;2023-07-16T12:01:33;2.80;;;1.70;;
75716;SDS011;64333;50.138;14.332;2023-07-16T12:03:58;2.57;;;1.97;;
75716;SDS011;64333;50.138;14.332;2023-07-16T12:06:23;2.17;;;1.90;;
75716;SDS011;64333;50.138;14.332;2023-07-16T12:08:49;2.33;;;1.67;;
75716;SDS011;64333;50.138;14.332;2023-07-16T12:11:14;1.90;;;1.60;;
75716;SDS011;64333;50.138;14.332;2023-07-16T12:13:39;3.40;;;1.70;;
75716;SDS011;64333;50.138;14.332;2023-07-16T12:16:05;1.80;;;1.53;;
75716;SDS011;64333;50.138;14.332;2023-07-16T12:18:30;1.90;;;1.50;;
75716;SDS011;64333;50.138;14.332;2023-07-16T12:20:56;3.05;;;1.80;;
75716;SDS011;64333;50.138;14.332;2023-07-16T12:23:21;3.20;;;1.80;;
75716;SDS011;64333;50.138;14.332;2023-07-16T12:25:47;2.40;;;1.73;;
75716;SDS011;64333;50.138;14.332;2023-07-16T12:28:12;2.63;;;2.05;;
75716;SDS011;64333;50.138;14.332;2023-07-16T12:30:37;2.07;;;1.70;;
75716;SDS011;64333;50.138;14.332;2023-07-16T12:33:03;6.00;;;2.10;;
75716;SDS011;64333;50.138;14.332;2023-07-16T12:35:29;2.90;;;1.90;;
75716;SDS011;64333;50.138;14.332;2023-07-16T12:37:54;1.52;;;1.42;;
75716;SDS011;64333;50.138;14.332;2023-07-16T12:40:19;3.33;;;2.30;;
75716;SDS011;64333;50.138;14.332;2023-07-16T12:42:44;4.97;;;2.03;;
75716;SDS011;64333;50.138;14.332;2023-07-16T12:45:10;2.00;;;1.80;;
75716;SDS011;64333;50.138;14.332;2023-07-16T12:47:35;3.03;;;2.00;;
75716;SDS011;64333;50.138;14.332;2023-07-16T12:50:00;3.80;;;2.13;;
75716;SDS011;64333;50.138;14.332;2023-07-16T12:52:25;2.58;;;1.95;;
75716;SDS011;64333;50.138;14.332;2023-07-16T12:54:51;2.07;;;1.87;;
75716;SDS011;64333;50.138;14.332;2023-07-16T12:57:17;3.47;;;2.30;;
75716;SDS011;64333;50.138;14.332;2023-07-16T12:59:42;2.38;;;2.00;;
75716;SDS011;64333;50.138;14.332;2023-07-16T13:02:07;2.67;;;2.00;;
75716;SDS011;64333;50.138;14.332;2023-07-16T13:04:33;3.03;;;2.00;;
75716;SDS011;64333;50.138;14.332;2023-07-16T13:07:01;2.95;;;2.20;;
75716;SDS011;64333;50.138;14.332;2023-07-16T13:09:26;2.40;;;1.80;;
75716;SDS011;64333;50.138;14.332;2023-07-16T13:11:52;2.05;;;1.85;;
75716;SDS011;64333;50.138;14.332;2023-07-16T13:14:17;2.13;;;1.90;;
75716;SDS011;64333;50.138;14.332;2023-07-16T13:16:42;2.40;;;1.67;;
75716;SDS011;64333;50.138;14.332;2023-07-16T13:19:08;2.13;;;1.87;;
75716;SDS011;64333;50.138;14.332;2023-07-16T13:21:33;2.90;;;1.90;;
75716;SDS011;64333;50.138;14.332;2023-07-16T13:23:58;2.07;;;1.80;;
75716;SDS011;64333;50.138;14.332;2023-07-16T13:26:23;2.87;;;1.70;;
75716;SDS011;64333;50.138;14.332;2023-07-16T13:28:49;1.70;;;1.60;;
75716;SDS011;64333;50.138;14.332;2023-07-16T13:31:15;2.10;;;1.90;;
75716;SDS011;64333;50.138;14.332;2023-07-16T13:33:40;1.90;;;1.73;;
75716;SDS011;64333;50.138;14.332;2023-07-16T13:36:05;1.80;;;1.67;;
75716;SDS011;64333;50.138;14.332;2023-07-16T13:38:31;2.07;;;1.80;;
75716;SDS011;64333;50.138;14.332;2023-07-16T13:40:56;3.83;;;2.10;;
75716;SDS011;64333;50.138;14.332;2023-07-16T13:43:21;2.40;;;1.90;;
75716;SDS011;64333;50.138;14.332;2023-07-16T13:45:47;3.20;;;2.10;;
75716;SDS011;64333;50.138;14.332;2023-07-16T13:48:12;2.75;;;2.10;;
75716;SDS011;64333;50.138;14.332;2023-07-16T13:50:37;2.15;;;1.67;;
75716;SDS011;64333;50.138;14.332;2023-07-16T13:53:02;2.30;;;1.77;;
75716;SDS011;64333;50.138;14.332;2023-07-16T13:55:28;2.17;;;1.67;;
75716;SDS011;64333;50.138;14.332;2023-07-16T13:57:54;1.70;;;1.57;;
75716;SDS011;64333;50.138;14.332;2023-07-16T14:00:20;3.17;;;1.80;;
75716;SDS011;64333;50.138;14.332;2023-07-16T14:02:46;1.80;;;1.70;;
75716;SDS011;64333;50.138;14.332;2023-07-16T14:05:11;2.50;;;1.60;;
75716;SDS011;64333;50.138;14.332;2023-07-16T14:07:36;2.00;;;1.70;;
75716;SDS011;64333;50.138;14.332;2023-07-16T14:10:01;1.63;;;1.53;;
75716;SDS011;64333;50.138;14.332;2023-07-16T14:12:27;1.93;;;1.70;;
75716;SDS011;64333;50.138;14.332;2023-07-16T14:14:52;2.83;;;1.63;;
75716;SDS011;64333;50.138;14.332;2023-07-16T14:17:17;2.03;;;1.83;;
75716;SDS011;64333;50.138;14.332;2023-07-16T14:19:42;2.20;;;2.00;;
75716;SDS011;64333;50.138;14.332;2023-07-16T14:22:08;2.57;;;1.97;;
75716;SDS011;64333;50.138;14.332;2023-07-16T14:24:36;1.80;;;1.70;;
75716;SDS011;64333;50.138;14.332;2023-07-16T14:27:01;3.97;;;1.52;;
75716;SDS011;64333;50.138;14.332;2023-07-16T14:29:27;3.53;;;1.63;;
75716;SDS011;64333;50.138;14.332;2023-07-16T14:31:54;2.92;;;1.70;;
75716;SDS011;64333;50.138;14.332;2023-07-16T14:34:19;1.73;;;1.53;;